UAL46 KIAH-EDDF
Flight info
| Callsign | UAL46 |
|---|---|
| Flight time | N/A |
| Altitude | 35000 |
| Route | LURIC8 HAWES DCT ELD DCT MEM DCT IIU DCT JHW DCT ROC DCT SSENA DCT BAREE N647B RIKAL/M082F370 DCT 53N050W 54N040W 55N030W 56N020W DCT PIKIL DCT SOVED/N0474F390 DCT LUTOV DCT BELOX L603 DOLAS DCT NAVPI DCT NOLRU DCT DIXAT DIXAT1A |
| Aircraft | B77W/H-SDE1E2E3FGHIJ2J3J4J5M1RWXY/LB1D1 |
Departure
| Time | 2026-05-06 03:24 |
|---|---|
| Airport | George Bush Intercontinental Airport (KIAH) |
Arrival
| Time | N/A |
|---|---|
| Airport | Frankfurt Main Airport (EDDF) |
| Time | Latitude | Longitude | Altitude | Speed | Heading |
|---|---|---|---|---|---|
| 2026-05-06 02:30 | 29.98380 | -95.33596 | 106 ft | 0 kts | 59° |
| 2026-05-06 03:10 | 29.98374 | -95.33607 | 106 ft | 1 kts | 59° |
| 2026-05-06 03:10 | 29.98368 | -95.33618 | 106 ft | 2 kts | 52° |
| 2026-05-06 03:10 | 29.98357 | -95.33629 | 106 ft | 2 kts | 22° |
| 2026-05-06 03:11 | 29.98342 | -95.33633 | 106 ft | 2 kts | 358° |
| 2026-05-06 03:11 | 29.98327 | -95.33629 | 106 ft | 2 kts | 333° |
| 2026-05-06 03:11 | 29.98314 | -95.33618 | 106 ft | 2 kts | 308° |
| 2026-05-06 03:11 | 29.98307 | -95.33603 | 106 ft | 2 kts | 283° |
| 2026-05-06 03:12 | 29.98306 | -95.33594 | 106 ft | 1 kts | 275° |
| 2026-05-06 03:12 | 29.98305 | -95.33592 | 106 ft | 0 kts | 275° |
| 2026-05-06 03:15 | 29.98306 | -95.33592 | 106 ft | 0 kts | 275° |
| 2026-05-06 03:15 | 29.98307 | -95.33604 | 106 ft | 3 kts | 278° |
| 2026-05-06 03:16 | 29.98312 | -95.33654 | 106 ft | 8 kts | 277° |
| 2026-05-06 03:16 | 29.98317 | -95.33746 | 106 ft | 13 kts | 271° |
| 2026-05-06 03:16 | 29.98317 | -95.33847 | 106 ft | 13 kts | 270° |
| 2026-05-06 03:16 | 29.98319 | -95.33958 | 106 ft | 12 kts | 275° |
| 2026-05-06 03:17 | 29.98352 | -95.34049 | 106 ft | 12 kts | 302° |
| 2026-05-06 03:17 | 29.98376 | -95.34160 | 106 ft | 14 kts | 271° |
| 2026-05-06 03:17 | 29.98377 | -95.34271 | 106 ft | 15 kts | 270° |
| 2026-05-06 03:17 | 29.98377 | -95.34390 | 106 ft | 11 kts | 265° |
| 2026-05-06 03:18 | 29.98345 | -95.34468 | 106 ft | 9 kts | 236° |
| 2026-05-06 03:18 | 29.98325 | -95.34558 | 105 ft | 13 kts | 269° |
| 2026-05-06 03:18 | 29.98325 | -95.34686 | 103 ft | 17 kts | 270° |
| 2026-05-06 03:18 | 29.98325 | -95.34827 | 103 ft | 16 kts | 270° |
| 2026-05-06 03:19 | 29.98325 | -95.34951 | 103 ft | 14 kts | 270° |
| 2026-05-06 03:19 | 29.98325 | -95.35061 | 103 ft | 11 kts | 270° |
| 2026-05-06 03:19 | 29.98325 | -95.35129 | 103 ft | 6 kts | 277° |
| 2026-05-06 03:19 | 29.98350 | -95.35176 | 103 ft | 7 kts | 319° |
| 2026-05-06 03:20 | 29.98466 | -95.35255 | 103 ft | 11 kts | 332° |
| 2026-05-06 03:20 | 29.98544 | -95.35302 | 103 ft | 13 kts | 332° |
| 2026-05-06 03:20 | 29.98634 | -95.35358 | 103 ft | 15 kts | 332° |
| 2026-05-06 03:21 | 29.98717 | -95.35408 | 103 ft | 11 kts | 332° |
| 2026-05-06 03:21 | 29.98787 | -95.35451 | 103 ft | 11 kts | 332° |
| 2026-05-06 03:21 | 29.98850 | -95.35490 | 103 ft | 9 kts | 332° |
| 2026-05-06 03:21 | 29.98884 | -95.35531 | 103 ft | 7 kts | 276° |
| 2026-05-06 03:22 | 29.98869 | -95.35588 | 103 ft | 8 kts | 245° |
| 2026-05-06 03:22 | 29.98850 | -95.35631 | 103 ft | 4 kts | 243° |
| 2026-05-06 03:22 | 29.98832 | -95.35671 | 103 ft | 6 kts | 243° |
| 2026-05-06 03:22 | 29.98809 | -95.35722 | 103 ft | 6 kts | 242° |
| 2026-05-06 03:23 | 29.98778 | -95.35764 | 103 ft | 7 kts | 205° |
| 2026-05-06 03:23 | 29.98730 | -95.35754 | 103 ft | 7 kts | 152° |
| 2026-05-06 03:23 | 29.98595 | -95.35671 | 103 ft | 46 kts | 152° |
| 2026-05-06 03:23 | 29.98100 | -95.35369 | 103 ft | 111 kts | 152° |
| 2026-05-06 03:24 | 29.97240 | -95.34842 | 101 ft | 166 kts | 153° |
| 2026-05-06 03:24 | 29.96084 | -95.34156 | 337 ft | 195 kts | 154° |
| 2026-05-06 03:24 | 29.94835 | -95.33421 | 964 ft | 204 kts | 154° |
| 2026-05-06 03:24 | 29.93800 | -95.32346 | 1860 ft | 201 kts | 123° |
| 2026-05-06 03:25 | 29.93323 | -95.30802 | 2405 ft | 213 kts | 101° |
| 2026-05-06 03:25 | 29.93332 | -95.28991 | 2751 ft | 235 kts | 85° |
| 2026-05-06 03:25 | 29.94081 | -95.27205 | 3036 ft | 264 kts | 47° |
| 2026-05-06 03:25 | 29.95738 | -95.26121 | 3340 ft | 286 kts | 10° |
| 2026-05-06 03:26 | 29.97733 | -95.25964 | 4022 ft | 288 kts | 359° |
| 2026-05-06 03:26 | 29.99749 | -95.25976 | 4784 ft | 289 kts | 358° |
| 2026-05-06 03:26 | 30.01790 | -95.26000 | 5536 ft | 290 kts | 357° |
| 2026-05-06 03:26 | 30.03829 | -95.26024 | 6319 ft | 289 kts | 356° |
| 2026-05-06 03:27 | 30.05846 | -95.26049 | 6985 ft | 292 kts | 356° |
| 2026-05-06 03:27 | 30.07935 | -95.25957 | 7543 ft | 301 kts | 10° |
| 2026-05-06 03:27 | 30.09908 | -95.25023 | 8121 ft | 308 kts | 30° |
| 2026-05-06 03:27 | 30.11690 | -95.23655 | 8778 ft | 311 kts | 34° |
| 2026-05-06 03:28 | 30.13496 | -95.22189 | 9333 ft | 317 kts | 34° |
| 2026-05-06 03:28 | 30.15341 | -95.20699 | 9984 ft | 319 kts | 33° |
| 2026-05-06 03:28 | 30.17193 | -95.19212 | 10443 ft | 329 kts | 33° |
| 2026-05-06 03:28 | 30.19158 | -95.17641 | 10709 ft | 346 kts | 33° |
| 2026-05-06 03:29 | 30.21212 | -95.15999 | 10985 ft | 363 kts | 33° |
| 2026-05-06 03:29 | 30.23355 | -95.14284 | 11267 ft | 379 kts | 33° |
| 2026-05-06 03:29 | 30.25584 | -95.12499 | 11562 ft | 394 kts | 33° |
| 2026-05-06 03:29 | 30.27911 | -95.10635 | 11887 ft | 408 kts | 32° |
| 2026-05-06 03:30 | 30.30263 | -95.08750 | 12412 ft | 415 kts | 32° |
| 2026-05-06 03:30 | 30.32706 | -95.06789 | 13073 ft | 419 kts | 32° |
| 2026-05-06 03:30 | 30.35130 | -95.04842 | 13756 ft | 422 kts | 32° |
| 2026-05-06 03:30 | 30.37540 | -95.02907 | 14406 ft | 426 kts | 31° |
| 2026-05-06 03:31 | 30.39994 | -95.00934 | 15049 ft | 430 kts | 31° |
| 2026-05-06 03:31 | 30.42508 | -94.98962 | 15676 ft | 434 kts | 30° |
| 2026-05-06 03:31 | 30.45091 | -94.96995 | 15960 ft | 441 kts | 29° |
| 2026-05-06 03:31 | 30.47677 | -94.95026 | 16427 ft | 449 kts | 29° |
| 2026-05-06 03:32 | 30.50276 | -94.93040 | 17293 ft | 446 kts | 29° |
| 2026-05-06 03:32 | 30.52874 | -94.91054 | 18010 ft | 447 kts | 29° |
| 2026-05-06 03:32 | 30.55514 | -94.89035 | 18510 ft | 454 kts | 28° |
| 2026-05-06 03:32 | 30.58187 | -94.86987 | 19030 ft | 460 kts | 28° |
| 2026-05-06 03:33 | 30.60895 | -94.84911 | 19587 ft | 465 kts | 28° |
| 2026-05-06 03:33 | 30.63476 | -94.82928 | 20116 ft | 469 kts | 28° |
| 2026-05-06 03:33 | 30.66298 | -94.80758 | 20761 ft | 472 kts | 27° |
| 2026-05-06 03:33 | 30.69071 | -94.78624 | 21337 ft | 475 kts | 27° |
| 2026-05-06 03:34 | 30.71843 | -94.76491 | 21809 ft | 481 kts | 27° |
| 2026-05-06 03:34 | 30.74668 | -94.74315 | 22285 ft | 485 kts | 27° |
| 2026-05-06 03:34 | 30.77514 | -94.72120 | 22803 ft | 489 kts | 27° |
| 2026-05-06 03:34 | 30.80343 | -94.69936 | 23293 ft | 493 kts | 27° |
| 2026-05-06 03:35 | 30.83204 | -94.67728 | 23733 ft | 497 kts | 26° |
| 2026-05-06 03:35 | 30.86117 | -94.65477 | 24191 ft | 501 kts | 26° |
| 2026-05-06 03:35 | 30.89073 | -94.63191 | 24659 ft | 505 kts | 26° |
| 2026-05-06 03:35 | 30.92029 | -94.60902 | 25112 ft | 509 kts | 26° |
| 2026-05-06 03:36 | 30.95028 | -94.58580 | 25549 ft | 514 kts | 26° |
| 2026-05-06 03:36 | 30.98012 | -94.56266 | 26073 ft | 516 kts | 26° |
| 2026-05-06 03:36 | 31.01011 | -94.53940 | 26499 ft | 520 kts | 25° |
| 2026-05-06 03:36 | 31.04047 | -94.51587 | 26896 ft | 525 kts | 26° |
| 2026-05-06 03:37 | 31.07096 | -94.49223 | 27315 ft | 529 kts | 25° |
| 2026-05-06 03:37 | 31.10205 | -94.46809 | 27787 ft | 532 kts | 25° |
| 2026-05-06 03:37 | 31.13298 | -94.44406 | 28246 ft | 536 kts | 25° |
| 2026-05-06 03:37 | 31.16430 | -94.41972 | 28646 ft | 540 kts | 25° |
| 2026-05-06 03:38 | 31.19572 | -94.39527 | 29046 ft | 544 kts | 25° |
| 2026-05-06 03:38 | 31.22769 | -94.37034 | 29575 ft | 546 kts | 25° |
| 2026-05-06 03:38 | 31.25899 | -94.34587 | 30240 ft | 544 kts | 25° |
| 2026-05-06 03:38 | 31.29067 | -94.32111 | 30864 ft | 543 kts | 25° |
| 2026-05-06 03:39 | 31.32257 | -94.29616 | 31338 ft | 544 kts | 25° |
| 2026-05-06 03:39 | 31.35466 | -94.27106 | 31794 ft | 545 kts | 25° |
| 2026-05-06 03:39 | 31.38686 | -94.24585 | 32266 ft | 545 kts | 25° |
| 2026-05-06 03:39 | 31.41831 | -94.22120 | 32764 ft | 544 kts | 25° |
| 2026-05-06 03:40 | 31.48229 | -94.17100 | 32858 ft | 543 kts | 25° |
| 2026-05-06 03:40 | 31.54510 | -94.12163 | 32861 ft | 542 kts | 25° |